sensor_id;sensor_type;location;lat;lon;timestamp;P1;durP1;ratioP1;P2;durP2;ratioP2
21356;SDS011;10836;53.068;18.234;2023-05-10T00:00:25;9.20;;;3.67;;
21356;SDS011;10836;53.068;18.234;2023-05-10T00:03:10;6.30;;;3.47;;
21356;SDS011;10836;53.068;18.234;2023-05-10T00:05:37;7.67;;;3.70;;
21356;SDS011;10836;53.068;18.234;2023-05-10T00:08:04;9.23;;;3.67;;
21356;SDS011;10836;53.068;18.234;2023-05-10T00:10:31;9.27;;;3.73;;
21356;SDS011;10836;53.068;18.234;2023-05-10T00:12:58;11.83;;;3.37;;
21356;SDS011;10836;53.068;18.234;2023-05-10T00:15:25;7.47;;;3.50;;
21356;SDS011;10836;53.068;18.234;2023-05-10T00:17:52;10.50;;;3.13;;
21356;SDS011;10836;53.068;18.234;2023-05-10T00:20:19;11.93;;;3.53;;
21356;SDS011;10836;53.068;18.234;2023-05-10T00:22:46;8.73;;;3.60;;
21356;SDS011;10836;53.068;18.234;2023-05-10T00:25:13;9.40;;;3.20;;
21356;SDS011;10836;53.068;18.234;2023-05-10T00:27:40;7.43;;;3.30;;
21356;SDS011;10836;53.068;18.234;2023-05-10T00:30:07;11.40;;;3.30;;
21356;SDS011;10836;53.068;18.234;2023-05-10T00:32:34;6.23;;;3.27;;
21356;SDS011;10836;53.068;18.234;2023-05-10T00:35:01;8.23;;;3.10;;
21356;SDS011;10836;53.068;18.234;2023-05-10T00:37:28;10.30;;;3.43;;
21356;SDS011;10836;53.068;18.234;2023-05-10T00:39:55;5.20;;;3.17;;
21356;SDS011;10836;53.068;18.234;2023-05-10T00:42:22;8.40;;;3.40;;
21356;SDS011;10836;53.068;18.234;2023-05-10T00:44:51;8.97;;;3.57;;
21356;SDS011;10836;53.068;18.234;2023-05-10T00:47:18;5.57;;;3.23;;
21356;SDS011;10836;53.068;18.234;2023-05-10T00:49:45;9.73;;;3.53;;
21356;SDS011;10836;53.068;18.234;2023-05-10T00:52:12;10.37;;;3.40;;
21356;SDS011;10836;53.068;18.234;2023-05-10T00:54:40;9.60;;;3.70;;
21356;SDS011;10836;53.068;18.234;2023-05-10T00:57:08;8.47;;;3.63;;
21356;SDS011;10836;53.068;18.234;2023-05-10T00:59:35;8.40;;;3.30;;
21356;SDS011;10836;53.068;18.234;2023-05-10T01:02:02;7.00;;;3.87;;
21356;SDS011;10836;53.068;18.234;2023-05-10T01:04:29;10.70;;;3.80;;
21356;SDS011;10836;53.068;18.234;2023-05-10T01:06:57;7.83;;;4.10;;
21356;SDS011;10836;53.068;18.234;2023-05-10T01:09:24;9.77;;;4.10;;
21356;SDS011;10836;53.068;18.234;2023-05-10T01:11:52;9.13;;;3.83;;
21356;SDS011;10836;53.068;18.234;2023-05-10T01:14:21;13.80;;;3.97;;
21356;SDS011;10836;53.068;18.234;2023-05-10T01:16:48;9.57;;;4.17;;
21356;SDS011;10836;53.068;18.234;2023-05-10T01:19:18;8.43;;;4.00;;
21356;SDS011;10836;53.068;18.234;2023-05-10T01:25:04;9.50;;;4.43;;
21356;SDS011;10836;53.068;18.234;2023-05-10T01:34:02;8.17;;;4.37;;
21356;SDS011;10836;53.068;18.234;2023-05-10T01:36:51;11.10;;;5.03;;
21356;SDS011;10836;53.068;18.234;2023-05-10T01:39:28;8.97;;;4.60;;
21356;SDS011;10836;53.068;18.234;2023-05-10T01:42:04;10.20;;;4.63;;
21356;SDS011;10836;53.068;18.234;2023-05-10T01:47:17;7.47;;;4.23;;
21356;SDS011;10836;53.068;18.234;2023-05-10T01:49:53;11.40;;;3.97;;
21356;SDS011;10836;53.068;18.234;2023-05-10T01:52:25;8.50;;;4.87;;
21356;SDS011;10836;53.068;18.234;2023-05-10T01:55:04;15.40;;;4.60;;
21356;SDS011;10836;53.068;18.234;2023-05-10T01:57:37;10.57;;;4.50;;
21356;SDS011;10836;53.068;18.234;2023-05-10T02:00:06;9.53;;;4.37;;
21356;SDS011;10836;53.068;18.234;2023-05-10T02:02:42;17.13;;;4.80;;
21356;SDS011;10836;53.068;18.234;2023-05-10T02:05:15;8.10;;;4.17;;
21356;SDS011;10836;53.068;18.234;2023-05-10T02:07:44;9.93;;;4.63;;
21356;SDS011;10836;53.068;18.234;2023-05-10T02:10:11;9.70;;;4.53;;
21356;SDS011;10836;53.068;18.234;2023-05-10T02:12:42;8.87;;;4.37;;
21356;SDS011;10836;53.068;18.234;2023-05-10T02:15:11;10.37;;;4.50;;
21356;SDS011;10836;53.068;18.234;2023-05-10T02:17:43;7.77;;;4.13;;
21356;SDS011;10836;53.068;18.234;2023-05-10T02:20:12;13.17;;;5.00;;
21356;SDS011;10836;53.068;18.234;2023-05-10T02:22:43;8.27;;;4.73;;
21356;SDS011;10836;53.068;18.234;2023-05-10T02:25:13;8.30;;;4.07;;
21356;SDS011;10836;53.068;18.234;2023-05-10T02:27:42;8.43;;;4.27;;
21356;SDS011;10836;53.068;18.234;2023-05-10T02:30:11;11.40;;;4.40;;
21356;SDS011;10836;53.068;18.234;2023-05-10T02:32:38;12.13;;;4.23;;
21356;SDS011;10836;53.068;18.234;2023-05-10T02:35:06;13.60;;;5.37;;
21356;SDS011;10836;53.068;18.234;2023-05-10T02:37:35;6.80;;;4.20;;
21356;SDS011;10836;53.068;18.234;2023-05-10T02:40:04;8.87;;;4.93;;
21356;SDS011;10836;53.068;18.234;2023-05-10T02:42:35;8.80;;;4.83;;
21356;SDS011;10836;53.068;18.234;2023-05-10T02:45:05;8.57;;;4.50;;
21356;SDS011;10836;53.068;18.234;2023-05-10T02:47:37;10.53;;;5.03;;
21356;SDS011;10836;53.068;18.234;2023-05-10T02:50:04;10.90;;;4.53;;
21356;SDS011;10836;53.068;18.234;2023-05-10T02:52:46;10.17;;;4.33;;
21356;SDS011;10836;53.068;18.234;2023-05-10T02:55:16;12.07;;;4.87;;
21356;SDS011;10836;53.068;18.234;2023-05-10T02:57:48;9.03;;;4.30;;
21356;SDS011;10836;53.068;18.234;2023-05-10T03:00:21;9.57;;;4.77;;
21356;SDS011;10836;53.068;18.234;2023-05-10T03:02:48;9.53;;;4.50;;
21356;SDS011;10836;53.068;18.234;2023-05-10T03:05:15;9.03;;;4.53;;
21356;SDS011;10836;53.068;18.234;2023-05-10T03:07:42;10.63;;;4.47;;
21356;SDS011;10836;53.068;18.234;2023-05-10T03:10:09;7.90;;;4.30;;
21356;SDS011;10836;53.068;18.234;2023-05-10T03:15:50;8.73;;;4.30;;
21356;SDS011;10836;53.068;18.234;2023-05-10T03:18:41;7.73;;;4.30;;
21356;SDS011;10836;53.068;18.234;2023-05-10T03:21:11;8.77;;;4.50;;
21356;SDS011;10836;53.068;18.234;2023-05-10T03:23:43;12.03;;;4.90;;
21356;SDS011;10836;53.068;18.234;2023-05-10T03:26:20;11.43;;;4.37;;
21356;SDS011;10836;53.068;18.234;2023-05-10T03:28:59;10.13;;;4.87;;
21356;SDS011;10836;53.068;18.234;2023-05-10T03:31:27;9.37;;;5.00;;
21356;SDS011;10836;53.068;18.234;2023-05-10T03:33:55;12.30;;;4.60;;
21356;SDS011;10836;53.068;18.234;2023-05-10T03:36:25;9.53;;;4.50;;
21356;SDS011;10836;53.068;18.234;2023-05-10T03:38:53;9.23;;;4.30;;
21356;SDS011;10836;53.068;18.234;2023-05-10T03:41:19;8.10;;;4.40;;
21356;SDS011;10836;53.068;18.234;2023-05-10T03:43:47;14.23;;;4.87;;
21356;SDS011;10836;53.068;18.234;2023-05-10T03:46:14;11.17;;;4.17;;
21356;SDS011;10836;53.068;18.234;2023-05-10T03:48:41;12.87;;;4.87;;
21356;SDS011;10836;53.068;18.234;2023-05-10T03:51:08;10.00;;;4.23;;
21356;SDS011;10836;53.068;18.234;2023-05-10T03:53:35;9.70;;;4.33;;
21356;SDS011;10836;53.068;18.234;2023-05-10T03:56:02;13.20;;;4.30;;
21356;SDS011;10836;53.068;18.234;2023-05-10T03:58:29;11.07;;;4.37;;
21356;SDS011;10836;53.068;18.234;2023-05-10T04:00:57;9.87;;;4.27;;
21356;SDS011;10836;53.068;18.234;2023-05-10T04:03:24;8.47;;;4.20;;
21356;SDS011;10836;53.068;18.234;2023-05-10T04:06:01;8.23;;;4.70;;
21356;SDS011;10836;53.068;18.234;2023-05-10T04:08:29;14.00;;;4.30;;
21356;SDS011;10836;53.068;18.234;2023-05-10T04:11:05;9.60;;;4.20;;
21356;SDS011;10836;53.068;18.234;2023-05-10T04:13:34;8.93;;;4.57;;
21356;SDS011;10836;53.068;18.234;2023-05-10T04:16:01;7.60;;;3.83;;
21356;SDS011;10836;53.068;18.234;2023-05-10T04:18:29;7.70;;;4.40;;
21356;SDS011;10836;53.068;18.234;2023-05-10T04:20:56;9.30;;;4.57;;
21356;SDS011;10836;53.068;18.234;2023-05-10T04:23:23;11.03;;;4.57;;
21356;SDS011;10836;53.068;18.234;2023-05-10T04:25:50;13.57;;;4.53;;
21356;SDS011;10836;53.068;18.234;2023-05-10T04:28:17;12.33;;;4.50;;
21356;SDS011;10836;53.068;18.234;2023-05-10T04:30:44;7.83;;;4.23;;
21356;SDS011;10836;53.068;18.234;2023-05-10T04:33:11;7.97;;;3.93;;
21356;SDS011;10836;53.068;18.234;2023-05-10T04:35:38;13.20;;;4.33;;
21356;SDS011;10836;53.068;18.234;2023-05-10T04:38:06;10.17;;;4.60;;
21356;SDS011;10836;53.068;18.234;2023-05-10T04:40:33;9.40;;;4.10;;
21356;SDS011;10836;53.068;18.234;2023-05-10T04:43:01;11.47;;;4.73;;
21356;SDS011;10836;53.068;18.234;2023-05-10T04:45:27;10.87;;;4.10;;
21356;SDS011;10836;53.068;18.234;2023-05-10T04:47:54;8.17;;;4.50;;
21356;SDS011;10836;53.068;18.234;2023-05-10T04:50:21;8.00;;;3.97;;
21356;SDS011;10836;53.068;18.234;2023-05-10T04:52:49;8.63;;;3.73;;
21356;SDS011;10836;53.068;18.234;2023-05-10T04:55:15;8.00;;;4.27;;
21356;SDS011;10836;53.068;18.234;2023-05-10T04:57:42;14.20;;;4.70;;
21356;SDS011;10836;53.068;18.234;2023-05-10T05:00:09;9.37;;;4.33;;
21356;SDS011;10836;53.068;18.234;2023-05-10T05:02:37;11.40;;;3.87;;
21356;SDS011;10836;53.068;18.234;2023-05-10T05:05:04;12.13;;;4.30;;
21356;SDS011;10836;53.068;18.234;2023-05-10T05:07:31;12.83;;;4.10;;
21356;SDS011;10836;53.068;18.234;2023-05-10T05:09:58;7.47;;;3.87;;
21356;SDS011;10836;53.068;18.234;2023-05-10T05:12:25;8.77;;;3.87;;
21356;SDS011;10836;53.068;18.234;2023-05-10T05:14:52;8.17;;;3.63;;
21356;SDS011;10836;53.068;18.234;2023-05-10T05:17:19;9.73;;;3.70;;
21356;SDS011;10836;53.068;18.234;2023-05-10T05:19:46;6.90;;;3.13;;
21356;SDS011;10836;53.068;18.234;2023-05-10T05:22:13;11.97;;;4.07;;
21356;SDS011;10836;53.068;18.234;2023-05-10T05:24:40;8.33;;;3.73;;
21356;SDS011;10836;53.068;18.234;2023-05-10T05:27:07;11.53;;;3.63;;
21356;SDS011;10836;53.068;18.234;2023-05-10T05:29:34;7.73;;;3.30;;
21356;SDS011;10836;53.068;18.234;2023-05-10T05:32:01;9.37;;;3.60;;
21356;SDS011;10836;53.068;18.234;2023-05-10T05:34:28;6.80;;;3.27;;
21356;SDS011;10836;53.068;18.234;2023-05-10T05:36:55;7.47;;;2.97;;
21356;SDS011;10836;53.068;18.234;2023-05-10T05:39:22;8.67;;;3.10;;
21356;SDS011;10836;53.068;18.234;2023-05-10T05:41:49;12.83;;;3.93;;
21356;SDS011;10836;53.068;18.234;2023-05-10T05:44:16;7.17;;;3.40;;
21356;SDS011;10836;53.068;18.234;2023-05-10T05:46:43;7.40;;;2.83;;
21356;SDS011;10836;53.068;18.234;2023-05-10T05:49:09;6.40;;;3.27;;
21356;SDS011;10836;53.068;18.234;2023-05-10T05:51:37;7.63;;;2.80;;
21356;SDS011;10836;53.068;18.234;2023-05-10T05:54:03;10.10;;;3.03;;
21356;SDS011;10836;53.068;18.234;2023-05-10T05:56:31;9.70;;;2.93;;
21356;SDS011;10836;53.068;18.234;2023-05-10T05:58:57;8.37;;;3.37;;
21356;SDS011;10836;53.068;18.234;2023-05-10T06:01:25;5.50;;;2.70;;
21356;SDS011;10836;53.068;18.234;2023-05-10T06:03:51;7.57;;;3.07;;
21356;SDS011;10836;53.068;18.234;2023-05-10T06:06:19;8.93;;;3.30;;
21356;SDS011;10836;53.068;18.234;2023-05-10T06:08:46;7.60;;;2.90;;
21356;SDS011;10836;53.068;18.234;2023-05-10T06:11:13;7.68;;;3.17;;
21356;SDS011;10836;53.068;18.234;2023-05-10T06:13:40;8.90;;;2.78;;
21356;SDS011;10836;53.068;18.234;2023-05-10T06:16:07;5.23;;;2.43;;
21356;SDS011;10836;53.068;18.234;2023-05-10T06:18:34;11.57;;;3.33;;
21356;SDS011;10836;53.068;18.234;2023-05-10T06:21:01;6.22;;;2.83;;
21356;SDS011;10836;53.068;18.234;2023-05-10T06:23:28;7.10;;;2.83;;
21356;SDS011;10836;53.068;18.234;2023-05-10T06:25:55;7.00;;;3.30;;
21356;SDS011;10836;53.068;18.234;2023-05-10T06:28:22;12.25;;;3.03;;
21356;SDS011;10836;53.068;18.234;2023-05-10T06:30:49;9.70;;;3.33;;
21356;SDS011;10836;53.068;18.234;2023-05-10T06:33:16;6.15;;;2.63;;
21356;SDS011;10836;53.068;18.234;2023-05-10T06:35:42;6.35;;;2.67;;
21356;SDS011;10836;53.068;18.234;2023-05-10T06:38:09;10.07;;;2.72;;
21356;SDS011;10836;53.068;18.234;2023-05-10T06:40:37;11.00;;;2.65;;
21356;SDS011;10836;53.068;18.234;2023-05-10T06:43:08;6.60;;;3.22;;
21356;SDS011;10836;53.068;18.234;2023-05-10T06:45:35;5.63;;;2.42;;
21356;SDS011;10836;53.068;18.234;2023-05-10T06:48:05;9.00;;;2.35;;
21356;SDS011;10836;53.068;18.234;2023-05-10T06:50:32;6.22;;;2.30;;
21356;SDS011;10836;53.068;18.234;2023-05-10T06:53:00;8.35;;;2.63;;
21356;SDS011;10836;53.068;18.234;2023-05-10T06:55:28;6.00;;;2.45;;
21356;SDS011;10836;53.068;18.234;2023-05-10T06:57:56;5.75;;;2.80;;
21356;SDS011;10836;53.068;18.234;2023-05-10T07:00:22;7.93;;;2.40;;
21356;SDS011;10836;53.068;18.234;2023-05-10T07:02:49;10.63;;;2.70;;
21356;SDS011;10836;53.068;18.234;2023-05-10T07:05:17;10.77;;;2.72;;
21356;SDS011;10836;53.068;18.234;2023-05-10T07:07:45;5.45;;;2.70;;
21356;SDS011;10836;53.068;18.234;2023-05-10T07:10:11;10.48;;;3.90;;
21356;SDS011;10836;53.068;18.234;2023-05-10T07:12:39;6.05;;;2.58;;
21356;SDS011;10836;53.068;18.234;2023-05-10T07:15:06;17.48;;;2.85;;
21356;SDS011;10836;53.068;18.234;2023-05-10T07:17:33;6.95;;;2.53;;
21356;SDS011;10836;53.068;18.234;2023-05-10T07:20:01;9.60;;;2.75;;
21356;SDS011;10836;53.068;18.234;2023-05-10T07:22:28;8.93;;;2.47;;
21356;SDS011;10836;53.068;18.234;2023-05-10T07:24:55;11.88;;;2.72;;
21356;SDS011;10836;53.068;18.234;2023-05-10T07:27:22;9.95;;;2.45;;
21356;SDS011;10836;53.068;18.234;2023-05-10T07:29:48;8.73;;;2.40;;
21356;SDS011;10836;53.068;18.234;2023-05-10T07:32:16;6.82;;;2.33;;
21356;SDS011;10836;53.068;18.234;2023-05-10T07:34:42;10.75;;;2.78;;
21356;SDS011;10836;53.068;18.234;2023-05-10T07:37:09;9.18;;;2.28;;
21356;SDS011;10836;53.068;18.234;2023-05-10T07:39:36;4.53;;;2.22;;
21356;SDS011;10836;53.068;18.234;2023-05-10T07:42:04;7.45;;;2.40;;
21356;SDS011;10836;53.068;18.234;2023-05-10T07:44:30;8.32;;;2.45;;
21356;SDS011;10836;53.068;18.234;2023-05-10T07:46:57;13.65;;;2.60;;
21356;SDS011;10836;53.068;18.234;2023-05-10T07:49:25;5.95;;;2.40;;
21356;SDS011;10836;53.068;18.234;2023-05-10T07:51:52;8.57;;;2.22;;
21356;SDS011;10836;53.068;18.234;2023-05-10T07:54:19;5.07;;;2.08;;
21356;SDS011;10836;53.068;18.234;2023-05-10T07:56:46;5.85;;;2.30;;
21356;SDS011;10836;53.068;18.234;2023-05-10T07:59:16;5.10;;;2.22;;
21356;SDS011;10836;53.068;18.234;2023-05-10T08:01:44;8.70;;;2.70;;
21356;SDS011;10836;53.068;18.234;2023-05-10T08:04:11;9.20;;;2.42;;
21356;SDS011;10836;53.068;18.234;2023-05-10T08:06:39;10.15;;;2.28;;
21356;SDS011;10836;53.068;18.234;2023-05-10T08:09:06;7.50;;;2.30;;
21356;SDS011;10836;53.068;18.234;2023-05-10T08:11:34;11.25;;;2.50;;
21356;SDS011;10836;53.068;18.234;2023-05-10T08:14:01;7.65;;;2.25;;
21356;SDS011;10836;53.068;18.234;2023-05-10T08:16:28;7.72;;;2.70;;
21356;SDS011;10836;53.068;18.234;2023-05-10T08:18:55;8.23;;;2.00;;
21356;SDS011;10836;53.068;18.234;2023-05-10T08:21:23;12.25;;;2.70;;
21356;SDS011;10836;53.068;18.234;2023-05-10T08:23:49;18.50;;;2.60;;
21356;SDS011;10836;53.068;18.234;2023-05-10T08:26:16;8.13;;;2.15;;
21356;SDS011;10836;53.068;18.234;2023-05-10T08:28:43;8.52;;;2.20;;
21356;SDS011;10836;53.068;18.234;2023-05-10T08:31:10;6.05;;;2.65;;
21356;SDS011;10836;53.068;18.234;2023-05-10T08:33:37;7.63;;;2.17;;
21356;SDS011;10836;53.068;18.234;2023-05-10T08:36:04;12.23;;;2.33;;
21356;SDS011;10836;53.068;18.234;2023-05-10T08:38:31;11.55;;;2.55;;
21356;SDS011;10836;53.068;18.234;2023-05-10T08:40:58;7.00;;;2.42;;
21356;SDS011;10836;53.068;18.234;2023-05-10T08:43:27;7.43;;;2.20;;
21356;SDS011;10836;53.068;18.234;2023-05-10T08:45:59;9.32;;;2.17;;
21356;SDS011;10836;53.068;18.234;2023-05-10T08:48:29;8.27;;;2.50;;
21356;SDS011;10836;53.068;18.234;2023-05-10T08:50:58;6.25;;;2.38;;
21356;SDS011;10836;53.068;18.234;2023-05-10T08:53:26;9.02;;;2.58;;
21356;SDS011;10836;53.068;18.234;2023-05-10T08:55:55;13.20;;;2.65;;
21356;SDS011;10836;53.068;18.234;2023-05-10T08:58:22;12.60;;;2.10;;
21356;SDS011;10836;53.068;18.234;2023-05-10T09:00:50;8.63;;;2.15;;
21356;SDS011;10836;53.068;18.234;2023-05-10T09:03:19;8.30;;;1.98;;
21356;SDS011;10836;53.068;18.234;2023-05-10T09:05:46;6.63;;;2.00;;
21356;SDS011;10836;53.068;18.234;2023-05-10T09:08:14;12.95;;;2.10;;
21356;SDS011;10836;53.068;18.234;2023-05-10T09:10:43;17.52;;;2.78;;
21356;SDS011;10836;53.068;18.234;2023-05-10T09:13:10;5.70;;;2.47;;
21356;SDS011;10836;53.068;18.234;2023-05-10T09:15:43;9.55;;;1.98;;
21356;SDS011;10836;53.068;18.234;2023-05-10T09:18:10;7.00;;;2.50;;
21356;SDS011;10836;53.068;18.234;2023-05-10T09:20:38;4.78;;;2.13;;
21356;SDS011;10836;53.068;18.234;2023-05-10T09:23:05;10.85;;;2.20;;
21356;SDS011;10836;53.068;18.234;2023-05-10T09:25:32;13.10;;;2.95;;
21356;SDS011;10836;53.068;18.234;2023-05-10T09:28:00;9.88;;;2.40;;
21356;SDS011;10836;53.068;18.234;2023-05-10T09:30:30;9.57;;;2.20;;
21356;SDS011;10836;53.068;18.234;2023-05-10T09:32:58;8.68;;;2.25;;
21356;SDS011;10836;53.068;18.234;2023-05-10T09:35:27;10.98;;;2.35;;
21356;SDS011;10836;53.068;18.234;2023-05-10T09:37:56;5.38;;;1.77;;
21356;SDS011;10836;53.068;18.234;2023-05-10T09:40:26;6.45;;;2.20;;
21356;SDS011;10836;53.068;18.234;2023-05-10T09:45:24;5.53;;;2.00;;
21356;SDS011;10836;53.068;18.234;2023-05-10T09:47:52;5.43;;;2.13;;
21356;SDS011;10836;53.068;18.234;2023-05-10T09:50:20;5.15;;;2.08;;
21356;SDS011;10836;53.068;18.234;2023-05-10T09:52:48;10.85;;;2.20;;
21356;SDS011;10836;53.068;18.234;2023-05-10T09:55:18;5.80;;;2.33;;
21356;SDS011;10836;53.068;18.234;2023-05-10T09:57:47;5.70;;;1.90;;
21356;SDS011;10836;53.068;18.234;2023-05-10T10:00:19;10.57;;;2.25;;
21356;SDS011;10836;53.068;18.234;2023-05-10T10:02:47;9.18;;;2.00;;
21356;SDS011;10836;53.068;18.234;2023-05-10T10:05:31;7.45;;;1.98;;
21356;SDS011;10836;53.068;18.234;2023-05-10T10:08:00;10.93;;;2.65;;
21356;SDS011;10836;53.068;18.234;2023-05-10T10:10:29;9.63;;;2.42;;
21356;SDS011;10836;53.068;18.234;2023-05-10T10:12:57;4.90;;;2.03;;
21356;SDS011;10836;53.068;18.234;2023-05-10T10:15:25;15.98;;;2.67;;
21356;SDS011;10836;53.068;18.234;2023-05-10T10:17:53;11.70;;;2.65;;
21356;SDS011;10836;53.068;18.234;2023-05-10T10:20:21;5.28;;;2.50;;
21356;SDS011;10836;53.068;18.234;2023-05-10T10:22:49;8.48;;;2.40;;
21356;SDS011;10836;53.068;18.234;2023-05-10T10:25:16;6.60;;;2.90;;
21356;SDS011;10836;53.068;18.234;2023-05-10T10:35:57;6.35;;;2.47;;
21356;SDS011;10836;53.068;18.234;2023-05-10T10:38:35;16.85;;;3.40;;
21356;SDS011;10836;53.068;18.234;2023-05-10T10:41:08;7.55;;;2.30;;
21356;SDS011;10836;53.068;18.234;2023-05-10T10:43:36;12.38;;;2.92;;
21356;SDS011;10836;53.068;18.234;2023-05-10T10:46:16;12.15;;;3.30;;
21356;SDS011;10836;53.068;18.234;2023-05-10T10:48:48;9.63;;;2.72;;
21356;SDS011;10836;53.068;18.234;2023-05-10T10:51:18;12.95;;;2.63;;
21356;SDS011;10836;53.068;18.234;2023-05-10T10:53:45;6.32;;;2.70;;
21356;SDS011;10836;53.068;18.234;2023-05-10T10:56:14;14.43;;;3.13;;
21356;SDS011;10836;53.068;18.234;2023-05-10T10:58:42;11.70;;;2.80;;
21356;SDS011;10836;53.068;18.234;2023-05-10T11:01:20;12.25;;;2.95;;
21356;SDS011;10836;53.068;18.234;2023-05-10T11:06:30;7.95;;;2.72;;
21356;SDS011;10836;53.068;18.234;2023-05-10T11:09:07;7.25;;;2.53;;
21356;SDS011;10836;53.068;18.234;2023-05-10T11:11:35;15.00;;;3.00;;
21356;SDS011;10836;53.068;18.234;2023-05-10T11:14:14;12.65;;;2.85;;
21356;SDS011;10836;53.068;18.234;2023-05-10T11:16:47;9.05;;;2.55;;
21356;SDS011;10836;53.068;18.234;2023-05-10T11:19:14;7.93;;;2.67;;
21356;SDS011;10836;53.068;18.234;2023-05-10T11:24:40;40.08;;;5.13;;
21356;SDS011;10836;53.068;18.234;2023-05-10T11:27:22;13.95;;;2.88;;
21356;SDS011;10836;53.068;18.234;2023-05-10T11:29:52;12.50;;;2.33;;
21356;SDS011;10836;53.068;18.234;2023-05-10T11:32:19;51.95;;;5.43;;
21356;SDS011;10836;53.068;18.234;2023-05-10T11:34:47;12.40;;;2.47;;
21356;SDS011;10836;53.068;18.234;2023-05-10T11:37:14;13.38;;;2.42;;
21356;SDS011;10836;53.068;18.234;2023-05-10T11:39:45;9.50;;;2.65;;
21356;SDS011;10836;53.068;18.234;2023-05-10T11:42:14;13.27;;;2.33;;
21356;SDS011;10836;53.068;18.234;2023-05-10T11:44:40;15.82;;;2.47;;
21356;SDS011;10836;53.068;18.234;2023-05-10T11:47:08;13.75;;;2.92;;
21356;SDS011;10836;53.068;18.234;2023-05-10T11:49:35;20.40;;;2.75;;
21356;SDS011;10836;53.068;18.234;2023-05-10T11:52:06;8.90;;;2.50;;
21356;SDS011;10836;53.068;18.234;2023-05-10T11:54:33;15.95;;;2.55;;
21356;SDS011;10836;53.068;18.234;2023-05-10T11:57:03;13.82;;;2.70;;
21356;SDS011;10836;53.068;18.234;2023-05-10T11:59:30;12.68;;;2.90;;
21356;SDS011;10836;53.068;18.234;2023-05-10T12:01:57;7.95;;;2.10;;
21356;SDS011;10836;53.068;18.234;2023-05-10T12:04:24;13.13;;;2.60;;
21356;SDS011;10836;53.068;18.234;2023-05-10T12:06:52;6.53;;;2.30;;
21356;SDS011;10836;53.068;18.234;2023-05-10T12:09:19;9.85;;;3.10;;
21356;SDS011;10836;53.068;18.234;2023-05-10T12:12:05;9.32;;;2.08;;
21356;SDS011;10836;53.068;18.234;2023-05-10T12:14:34;7.70;;;2.47;;
21356;SDS011;10836;53.068;18.234;2023-05-10T12:17:01;14.73;;;2.60;;
21356;SDS011;10836;53.068;18.234;2023-05-10T12:19:29;8.30;;;2.10;;
21356;SDS011;10836;53.068;18.234;2023-05-10T12:22:04;11.27;;;2.70;;
21356;SDS011;10836;53.068;18.234;2023-05-10T12:24:35;9.10;;;2.42;;
21356;SDS011;10836;53.068;18.234;2023-05-10T12:27:05;18.95;;;2.97;;
21356;SDS011;10836;53.068;18.234;2023-05-10T12:29:51;13.75;;;2.63;;
21356;SDS011;10836;53.068;18.234;2023-05-10T12:32:18;11.52;;;2.60;;
21356;SDS011;10836;53.068;18.234;2023-05-10T12:34:46;11.65;;;2.30;;
21356;SDS011;10836;53.068;18.234;2023-05-10T12:37:13;6.88;;;2.08;;
21356;SDS011;10836;53.068;18.234;2023-05-10T12:39:40;16.48;;;2.25;;
21356;SDS011;10836;53.068;18.234;2023-05-10T12:42:09;12.90;;;2.33;;
21356;SDS011;10836;53.068;18.234;2023-05-10T12:44:36;12.10;;;3.28;;
21356;SDS011;10836;53.068;18.234;2023-05-10T12:47:04;5.22;;;2.28;;
21356;SDS011;10836;53.068;18.234;2023-05-10T12:49:31;15.60;;;2.42;;
21356;SDS011;10836;53.068;18.234;2023-05-10T12:51:57;7.10;;;1.88;;
21356;SDS011;10836;53.068;18.234;2023-05-10T12:54:24;10.82;;;2.00;;
21356;SDS011;10836;53.068;18.234;2023-05-10T12:56:51;10.25;;;2.25;;
21356;SDS011;10836;53.068;18.234;2023-05-10T12:59:18;12.98;;;2.60;;
21356;SDS011;10836;53.068;18.234;2023-05-10T13:01:45;18.92;;;2.70;;
21356;SDS011;10836;53.068;18.234;2023-05-10T13:04:12;16.73;;;2.70;;
21356;SDS011;10836;53.068;18.234;2023-05-10T13:06:39;9.90;;;2.47;;
21356;SDS011;10836;53.068;18.234;2023-05-10T13:09:06;9.50;;;2.38;;
21356;SDS011;10836;53.068;18.234;2023-05-10T13:11:33;11.88;;;2.20;;
21356;SDS011;10836;53.068;18.234;2023-05-10T13:14:00;13.73;;;2.47;;
21356;SDS011;10836;53.068;18.234;2023-05-10T13:16:29;10.00;;;2.50;;
21356;SDS011;10836;53.068;18.234;2023-05-10T13:18:57;9.40;;;2.90;;
21356;SDS011;10836;53.068;18.234;2023-05-10T13:21:25;10.85;;;2.50;;
21356;SDS011;10836;53.068;18.234;2023-05-10T13:23:52;11.00;;;2.45;;
21356;SDS011;10836;53.068;18.234;2023-05-10T13:26:19;11.90;;;2.60;;
21356;SDS011;10836;53.068;18.234;2023-05-10T13:28:46;9.27;;;2.35;;
21356;SDS011;10836;53.068;18.234;2023-05-10T13:31:13;8.50;;;2.60;;
21356;SDS011;10836;53.068;18.234;2023-05-10T13:33:40;5.03;;;2.08;;
21356;SDS011;10836;53.068;18.234;2023-05-10T13:36:07;8.48;;;2.50;;
21356;SDS011;10836;53.068;18.234;2023-05-10T13:38:34;9.25;;;2.60;;
21356;SDS011;10836;53.068;18.234;2023-05-10T13:41:01;5.80;;;2.35;;
21356;SDS011;10836;53.068;18.234;2023-05-10T13:43:28;9.30;;;2.30;;
21356;SDS011;10836;53.068;18.234;2023-05-10T13:45:56;15.77;;;2.47;;
21356;SDS011;10836;53.068;18.234;2023-05-10T13:48:23;9.85;;;2.83;;
21356;SDS011;10836;53.068;18.234;2023-05-10T13:50:50;10.23;;;2.38;;
21356;SDS011;10836;53.068;18.234;2023-05-10T13:53:17;9.95;;;2.63;;
21356;SDS011;10836;53.068;18.234;2023-05-10T13:55:45;7.13;;;2.50;;
21356;SDS011;10836;53.068;18.234;2023-05-10T13:58:12;7.95;;;2.08;;
21356;SDS011;10836;53.068;18.234;2023-05-10T14:00:39;4.80;;;2.30;;
21356;SDS011;10836;53.068;18.234;2023-05-10T14:03:06;13.90;;;2.83;;
21356;SDS011;10836;53.068;18.234;2023-05-10T14:05:36;10.98;;;2.80;;
21356;SDS011;10836;53.068;18.234;2023-05-10T14:08:03;16.27;;;2.50;;
21356;SDS011;10836;53.068;18.234;2023-05-10T14:10:30;9.45;;;2.42;;
21356;SDS011;10836;53.068;18.234;2023-05-10T14:12:57;5.40;;;2.20;;
21356;SDS011;10836;53.068;18.234;2023-05-10T14:15:24;8.70;;;2.40;;
21356;SDS011;10836;53.068;18.234;2023-05-10T14:17:51;10.73;;;2.70;;
21356;SDS011;10836;53.068;18.234;2023-05-10T14:20:18;9.48;;;2.47;;
21356;SDS011;10836;53.068;18.234;2023-05-10T14:22:45;8.43;;;2.60;;
21356;SDS011;10836;53.068;18.234;2023-05-10T14:25:12;8.70;;;2.50;;
21356;SDS011;10836;53.068;18.234;2023-05-10T14:27:41;10.38;;;2.42;;
21356;SDS011;10836;53.068;18.234;2023-05-10T14:30:08;14.55;;;2.72;;
21356;SDS011;10836;53.068;18.234;2023-05-10T14:32:35;10.48;;;2.95;;
21356;SDS011;10836;53.068;18.234;2023-05-10T14:35:03;13.32;;;2.53;;
21356;SDS011;10836;53.068;18.234;2023-05-10T14:37:30;10.07;;;2.63;;
21356;SDS011;10836;53.068;18.234;2023-05-10T14:39:57;11.80;;;2.63;;
21356;SDS011;10836;53.068;18.234;2023-05-10T14:42:24;8.52;;;2.45;;
21356;SDS011;10836;53.068;18.234;2023-05-10T14:44:51;8.60;;;3.03;;
21356;SDS011;10836;53.068;18.234;2023-05-10T14:47:18;4.78;;;2.72;;
21356;SDS011;10836;53.068;18.234;2023-05-10T14:49:45;6.43;;;2.47;;
21356;SDS011;10836;53.068;18.234;2023-05-10T14:52:12;5.38;;;2.28;;
21356;SDS011;10836;53.068;18.234;2023-05-10T14:54:39;9.45;;;2.70;;
21356;SDS011;10836;53.068;18.234;2023-05-10T14:57:06;7.82;;;2.88;;
21356;SDS011;10836;53.068;18.234;2023-05-10T14:59:33;7.22;;;2.25;;
21356;SDS011;10836;53.068;18.234;2023-05-10T15:02:01;6.13;;;2.40;;
21356;SDS011;10836;53.068;18.234;2023-05-10T15:04:28;16.23;;;2.95;;
21356;SDS011;10836;53.068;18.234;2023-05-10T15:06:56;8.65;;;2.47;;